createdAt,value
2022-08-23T00:00:00.608Z,101042.84
2022-08-23T00:02:34.684Z,101040.28
2022-08-23T00:05:09.382Z,101035.00
2022-08-23T00:07:39.900Z,101029.78
2022-08-23T00:10:10.145Z,101039.69
2022-08-23T00:12:40.044Z,101033.53
2022-08-23T00:15:10.357Z,101030.94
2022-08-23T00:17:39.235Z,101027.47
2022-08-23T00:20:09.735Z,101027.66
2022-08-23T00:22:40.069Z,101021.47
2022-08-23T00:25:10.748Z,101018.00
2022-08-23T00:27:40.568Z,101018.16
2022-08-23T00:30:10.970Z,101024.53
2022-08-23T00:32:41.090Z,101024.63
2022-08-23T00:35:11.412Z,101029.19
2022-08-23T00:37:39.889Z,101024.91
2022-08-23T00:40:11.080Z,101023.16
2022-08-23T00:43:08.843Z,101030.41
2022-08-23T00:46:00.385Z,101032.34
2022-08-23T00:48:28.647Z,101021.69
2022-08-23T00:51:04.587Z,101025.38
2022-08-23T00:53:35.326Z,101021.94
2022-08-23T00:56:07.061Z,101019.31
2022-08-23T00:58:36.840Z,101022.06
2022-08-23T01:01:07.213Z,101027.56
2022-08-23T01:03:39.130Z,101024.97
2022-08-23T01:06:14.851Z,101025.91
2022-08-23T01:08:46.568Z,101023.34
2022-08-23T01:11:20.294Z,101019.88
2022-08-23T01:13:56.993Z,101027.97
2022-08-23T01:16:33.718Z,101026.25
2022-08-23T01:19:04.405Z,101030.81
2022-08-23T01:21:38.529Z,101025.50
2022-08-23T01:24:27.558Z,101030.06
2022-08-23T01:26:59.682Z,101031.06
2022-08-23T01:29:27.878Z,101024.88
2022-08-23T01:31:56.620Z,101023.13
2022-08-23T01:34:27.691Z,101030.34
2022-08-23T01:36:56.567Z,101029.50
2022-08-23T01:39:27.027Z,101027.78
2022-08-23T01:41:55.291Z,101032.31
2022-08-23T01:44:23.248Z,101030.63
2022-08-23T01:46:57.993Z,101031.63
2022-08-23T01:49:26.237Z,101037.03
2022-08-23T01:51:55.407Z,101032.63
2022-08-23T01:54:23.417Z,101038.97
2022-08-23T01:56:52.770Z,101029.25
2022-08-23T01:59:21.249Z,101030.19
2022-08-23T02:01:54.528Z,101024.91
2022-08-23T02:04:23.455Z,101030.28
2022-08-23T02:06:51.446Z,101023.25
2022-08-23T02:09:22.677Z,101026.00
2022-08-23T02:11:57.733Z,101027.81
2022-08-23T02:14:26.399Z,101021.66
2022-08-23T02:17:03.402Z,101019.94
2022-08-23T02:19:33.853Z,101027.09
2022-08-23T02:22:03.568Z,101027.16
2022-08-23T02:24:32.195Z,101019.22
2022-08-23T02:27:05.393Z,101033.50
2022-08-23T02:29:39.868Z,101026.44
2022-08-23T02:32:12.682Z,101036.28
2022-08-23T02:34:42.028Z,101030.13
2022-08-23T02:37:12.935Z,101026.63
2022-08-23T02:39:42.064Z,101024.91
2022-08-23T02:42:12.377Z,101031.22
2022-08-23T02:44:43.437Z,101035.75
2022-08-23T02:47:12.542Z,101041.97
2022-08-23T02:49:46.388Z,101048.25
2022-08-23T02:52:14.515Z,101042.97
2022-08-23T02:54:44.567Z,101048.38
2022-08-23T02:57:13.942Z,101045.75
2022-08-23T02:59:42.494Z,101044.91
2022-08-23T03:02:10.534Z,101038.75
2022-08-23T03:04:42.252Z,101039.66
2022-08-23T03:07:10.242Z,101042.38
2022-08-23T03:09:39.528Z,101030.84
2022-08-23T03:12:08.268Z,101040.69
2022-08-23T03:14:41.069Z,101038.00
2022-08-23T03:17:09.168Z,101038.97
2022-08-23T03:19:37.150Z,101038.06
2022-08-23T03:22:05.232Z,101046.16
2022-08-23T03:24:33.286Z,101042.59
2022-08-23T03:27:01.562Z,101039.09
2022-08-23T03:29:29.932Z,101041.84
2022-08-23T03:32:03.846Z,101037.41
2022-08-23T03:34:36.678Z,101035.72
2022-08-23T03:37:06.599Z,101045.56
2022-08-23T03:39:35.414Z,101040.25
2022-08-23T03:42:03.582Z,101045.66
2022-08-23T03:44:34.256Z,101043.94
2022-08-23T03:47:06.055Z,101041.28
2022-08-23T03:49:34.261Z,101049.31
2022-08-23T03:52:02.416Z,101044.88
2022-08-23T03:54:32.842Z,101048.50
2022-08-23T03:57:02.989Z,101052.09
2022-08-23T03:59:35.503Z,101055.69
2022-08-23T04:02:07.944Z,101056.59
2022-08-23T04:04:36.589Z,101056.59
2022-08-23T04:07:43.198Z,101054.88
2022-08-23T04:10:13.860Z,101063.78
2022-08-23T04:12:43.134Z,101064.72
2022-08-23T04:15:15.730Z,101053.16
2022-08-23T04:17:45.117Z,101065.63
2022-08-23T04:20:13.340Z,101060.31
2022-08-23T04:23:02.109Z,101071.94
2022-08-23T04:25:35.786Z,101072.84
2022-08-23T04:28:06.289Z,101070.25
2022-08-23T04:30:35.298Z,101078.25
2022-08-23T04:33:11.287Z,101080.94
2022-08-23T04:35:41.777Z,101078.28
2022-08-23T04:38:24.589Z,101078.31
2022-08-23T04:41:12.882Z,101076.50
2022-08-23T04:43:44.065Z,101080.97
2022-08-23T04:46:15.784Z,101086.31
2022-08-23T04:48:48.574Z,101088.09
2022-08-23T04:51:18.805Z,101096.13
2022-08-23T04:53:47.706Z,101105.88
2022-08-23T04:56:39.645Z,101106.78
2022-08-23T04:59:10.183Z,101105.00
2022-08-23T05:01:43.001Z,101113.88
2022-08-23T05:04:12.428Z,101109.47
2022-08-23T05:06:41.440Z,101105.00
2022-08-23T05:09:09.569Z,101111.22
2022-08-23T05:11:39.494Z,101110.31
2022-08-23T05:14:08.106Z,101115.66
2022-08-23T05:16:36.168Z,101105.84
2022-08-23T05:19:10.013Z,101113.84
2022-08-23T05:21:45.557Z,101115.56
2022-08-23T05:24:14.268Z,101112.00
2022-08-23T05:26:44.348Z,101110.16
2022-08-23T05:29:12.828Z,101122.56
2022-08-23T05:31:46.281Z,101118.13
2022-08-23T05:34:17.986Z,101123.41
2022-08-23T05:36:56.221Z,101126.91
2022-08-23T05:39:36.316Z,101125.09
2022-08-23T05:42:08.334Z,101126.81
2022-08-23T05:44:37.328Z,101126.78
2022-08-23T05:47:11.135Z,101120.47
2022-08-23T05:49:50.517Z,101121.28
2022-08-23T05:52:20.821Z,101120.28
2022-08-23T05:54:48.801Z,101122.00
2022-08-23T05:57:28.269Z,101127.28
2022-08-23T05:59:56.210Z,101122.75
2022-08-23T06:02:24.178Z,101125.25
2022-08-23T06:04:56.796Z,101127.00
2022-08-23T06:07:26.863Z,101135.78
2022-08-23T06:09:55.589Z,101124.09
2022-08-23T06:12:24.089Z,101133.78
2022-08-23T06:14:52.697Z,101140.81
2022-08-23T06:17:21.341Z,101143.38
2022-08-23T06:19:49.347Z,101150.34
2022-08-23T06:22:34.787Z,101142.16
2022-08-23T06:25:06.240Z,101155.44
2022-08-23T06:27:53.169Z,101144.53
2022-08-23T06:30:21.246Z,101150.63
2022-08-23T06:33:05.015Z,101159.41
2022-08-23T06:35:38.642Z,101161.91
2022-08-23T06:38:12.901Z,101166.22
2022-08-23T06:41:14.472Z,101157.13
2022-08-23T06:44:01.777Z,101162.34
2022-08-23T06:46:34.272Z,101165.84
2022-08-23T06:49:05.514Z,101159.44
2022-08-23T06:51:36.136Z,101167.34
2022-08-23T06:54:22.832Z,101159.13
2022-08-23T06:57:06.834Z,101162.53
2022-08-23T06:59:49.883Z,101166.84
2022-08-23T07:02:31.328Z,101167.63
2022-08-23T07:04:59.814Z,101170.13
2022-08-23T07:07:41.199Z,101168.22
2022-08-23T07:10:15.297Z,101173.41
2022-08-23T07:12:44.231Z,101169.69
2022-08-23T07:15:14.541Z,101172.19
2022-08-23T07:17:47.279Z,101175.53
2022-08-23T07:20:15.728Z,101177.09
2022-08-23T07:22:45.644Z,101175.94
2022-08-23T07:25:18.154Z,101171.31
2022-08-23T07:27:49.170Z,101182.72
2022-08-23T07:30:20.782Z,101173.63
2022-08-23T07:32:49.393Z,101176.16
2022-08-23T07:35:25.123Z,101176.91
2022-08-23T07:37:58.113Z,101180.28
2022-08-23T07:40:36.796Z,101186.38
2022-08-23T07:43:07.682Z,101193.31
2022-08-23T07:45:37.489Z,101188.56
2022-08-23T07:48:07.214Z,101190.16
2022-08-23T07:50:58.011Z,101185.38
2022-08-23T07:53:38.040Z,101186.88
2022-08-23T07:56:11.867Z,101187.47
2022-08-23T07:58:56.154Z,101189.81
2022-08-23T08:02:02.727Z,101197.50
2022-08-23T08:04:31.139Z,101197.13
2022-08-23T08:07:18.126Z,101190.50
2022-08-23T08:09:50.514Z,101187.44
2022-08-23T08:12:20.363Z,101194.19
2022-08-23T08:14:51.021Z,101198.16
2022-08-23T08:17:27.311Z,101193.13
2022-08-23T08:20:15.419Z,101197.94
2022-08-23T08:23:07.286Z,101194.69
2022-08-23T08:26:09.973Z,101194.81
2022-08-23T08:28:40.821Z,101201.38
2022-08-23T08:31:09.312Z,101192.81
2022-08-23T08:33:37.441Z,101185.22
2022-08-23T08:36:07.351Z,101192.69
2022-08-23T08:38:50.309Z,101198.28
2022-08-23T08:41:31.233Z,101182.22
2022-08-23T08:44:09.448Z,101191.34
2022-08-23T08:46:45.343Z,101192.56
2022-08-23T08:49:17.159Z,101177.63
2022-08-23T08:51:50.390Z,101183.38
2022-08-23T08:54:24.037Z,101187.19
2022-08-23T08:56:56.292Z,101192.81
2022-08-23T08:59:30.191Z,101196.63
2022-08-23T09:01:59.835Z,101182.34
2022-08-23T09:04:34.760Z,101188.75
2022-08-23T09:07:13.615Z,101193.44
2022-08-23T09:10:01.156Z,101189.88
2022-08-23T09:12:43.617Z,101181.06
2022-08-23T09:15:30.978Z,101190.22
2022-08-23T09:18:04.190Z,101181.31
2022-08-23T09:20:34.676Z,101184.22
2022-08-23T09:23:09.939Z,101177.16
2022-08-23T09:25:40.070Z,101174.63
2022-08-23T09:28:15.403Z,101174.88
2022-08-23T09:30:51.413Z,101161.47
2022-08-23T09:33:23.147Z,101169.59
2022-08-23T09:36:08.588Z,101160.56
2022-08-23T09:38:39.605Z,101157.00
2022-08-23T09:41:19.239Z,101161.44
2022-08-23T09:43:51.019Z,101154.09
2022-08-23T09:46:30.526Z,101149.59
2022-08-23T09:49:01.243Z,101160.44
2022-08-23T09:51:36.303Z,101143.59
2022-08-23T09:54:13.374Z,101148.38
2022-08-23T09:56:45.132Z,101141.53
2022-08-23T09:59:34.047Z,101145.94
2022-08-23T10:02:18.466Z,101146.53
2022-08-23T10:04:58.013Z,101146.47
2022-08-23T10:07:30.593Z,101144.44
2022-08-23T10:10:19.073Z,101140.16
2022-08-23T10:12:47.789Z,101131.13
2022-08-23T10:15:17.823Z,101133.91
2022-08-23T10:17:55.605Z,101130.66
2022-08-23T10:20:37.755Z,101125.41
2022-08-23T10:23:19.722Z,101124.72
2022-08-23T10:25:56.140Z,101123.59
2022-08-23T10:28:52.001Z,101131.75
2022-08-23T10:31:29.217Z,101131.63
2022-08-23T10:34:12.755Z,101125.44
2022-08-23T10:36:51.224Z,101121.97
2022-08-23T10:39:26.278Z,101131.66
2022-08-23T10:42:02.571Z,101128.69
2022-08-23T10:44:36.480Z,101127.75
2022-08-23T10:47:27.845Z,101130.00
2022-08-23T10:50:01.516Z,101134.56
2022-08-23T10:52:36.123Z,101131.19
2022-08-23T10:55:17.472Z,101132.63
2022-08-23T10:57:48.962Z,101135.56
2022-08-23T11:00:21.034Z,101130.78
2022-08-23T11:02:57.036Z,101127.03
2022-08-23T11:05:33.649Z,101126.78
2022-08-23T11:08:09.699Z,101117.22
2022-08-23T11:10:56.857Z,101135.03
2022-08-23T11:13:35.056Z,101116.88
2022-08-23T11:16:22.013Z,101120.06
2022-08-23T11:18:52.041Z,101116.91
2022-08-23T11:21:50.287Z,101103.31
2022-08-23T11:24:55.179Z,101108.06
2022-08-23T11:27:37.380Z,101112.84
2022-08-23T11:30:44.820Z,101112.09
2022-08-23T11:33:23.595Z,101107.69
2022-08-23T11:35:55.623Z,101108.81
2022-08-23T11:39:00.026Z,101105.88
2022-08-23T11:41:30.520Z,101113.06
2022-08-23T11:44:25.235Z,101113.97
2022-08-23T11:47:03.422Z,101107.50
2022-08-23T11:50:06.251Z,101108.66
2022-08-23T11:52:58.442Z,101108.50
2022-08-23T11:55:49.425Z,101108.16
2022-08-23T11:58:24.297Z,101108.81
2022-08-23T12:00:57.559Z,101108.66
2022-08-23T12:03:33.593Z,101105.09
2022-08-23T12:06:40.663Z,101103.22
2022-08-23T12:09:13.805Z,101111.25
2022-08-23T12:12:10.317Z,101093.19
2022-08-23T12:14:51.216Z,101103.66
2022-08-23T12:17:56.727Z,101107.81
2022-08-23T12:20:31.426Z,101106.38
2022-08-23T12:23:19.993Z,101103.59
2022-08-23T12:25:58.846Z,101103.59
2022-08-23T12:28:39.427Z,101106.16
2022-08-23T12:31:20.091Z,101099.22
2022-08-23T12:34:02.073Z,101099.00
2022-08-23T12:36:39.393Z,101091.22
2022-08-23T12:39:21.042Z,101097.25
2022-08-23T12:41:55.777Z,101082.13
2022-08-23T12:44:26.123Z,101090.75
2022-08-23T12:46:55.323Z,101090.88
2022-08-23T12:49:27.499Z,101087.78
2022-08-23T12:51:58.884Z,101095.09
2022-08-23T12:54:36.842Z,101097.09
2022-08-23T12:57:11.936Z,101093.78
2022-08-23T12:59:44.743Z,101091.75
2022-08-23T13:02:19.665Z,101097.53
2022-08-23T13:04:47.978Z,101090.94
2022-08-23T13:07:22.155Z,101094.97
2022-08-23T13:09:53.339Z,101099.25
2022-08-23T13:12:24.263Z,101093.44
2022-08-23T13:14:54.230Z,101094.19
2022-08-23T13:17:36.673Z,101085.91
2022-08-23T13:20:18.682Z,101082.84
2022-08-23T13:22:58.292Z,101087.00
2022-08-23T13:25:31.313Z,101087.19
2022-08-23T13:28:02.913Z,101083.63
2022-08-23T13:30:32.955Z,101082.84
2022-08-23T13:33:23.058Z,101073.09
2022-08-23T13:35:53.928Z,101090.00
2022-08-23T13:38:31.619Z,101089.19
2022-08-23T13:41:03.192Z,101081.84
2022-08-23T13:43:34.764Z,101081.09
2022-08-23T13:46:13.630Z,101075.75
2022-08-23T13:48:50.297Z,101079.97
2022-08-23T13:51:20.786Z,101081.94
2022-08-23T13:53:48.695Z,101071.38
2022-08-23T13:56:16.796Z,101079.69
2022-08-23T13:58:53.360Z,101073.69
2022-08-23T14:01:21.477Z,101072.50
2022-08-23T14:03:50.698Z,101070.91
2022-08-23T14:06:18.543Z,101071.16
2022-08-23T14:08:46.573Z,101069.72
2022-08-23T14:11:18.475Z,101074.53
2022-08-23T14:14:19.802Z,101064.53
2022-08-23T14:16:50.522Z,101068.38
2022-08-23T14:22:09.697Z,101065.69
2022-08-23T14:24:38.339Z,101068.97
2022-08-23T14:27:07.397Z,101055.16
2022-08-23T14:29:38.472Z,101057.06
2022-08-23T14:32:07.351Z,101058.75
2022-08-23T14:34:37.152Z,101053.22
2022-08-23T14:38:02.091Z,101058.03
2022-08-23T14:39:55.041Z,101047.28
2022-08-23T14:42:24.969Z,101051.41
2022-08-23T14:44:53.181Z,101053.25
2022-08-23T14:47:21.384Z,101058.88
2022-08-23T14:49:53.919Z,101055.53
2022-08-23T14:52:23.895Z,101046.50
2022-08-23T14:54:52.179Z,101047.88
2022-08-23T14:57:20.808Z,101051.50
2022-08-23T14:59:50.360Z,101043.50
2022-08-23T15:02:24.546Z,101043.91
2022-08-23T15:04:55.495Z,101048.47
2022-08-23T15:07:25.363Z,101051.47
2022-08-23T15:09:55.909Z,101051.13
2022-08-23T15:15:21.730Z,101049.94
2022-08-23T15:17:54.327Z,101051.97
2022-08-23T15:20:28.212Z,101050.91
2022-08-23T15:22:57.278Z,101053.38
2022-08-23T15:25:30.514Z,101046.91
2022-08-23T15:28:02.231Z,101042.19
2022-08-23T15:30:33.270Z,101042.47
2022-08-23T15:33:03.309Z,101046.56
2022-08-23T15:35:38.042Z,101046.66
2022-08-23T15:38:11.038Z,101035.63
2022-08-23T15:40:39.829Z,101032.81
2022-08-23T15:43:09.238Z,101032.00
2022-08-23T15:45:40.077Z,101032.94
2022-08-23T15:48:21.100Z,101037.69
2022-08-23T15:50:51.309Z,101032.69
2022-08-23T15:53:22.373Z,101030.16
2022-08-23T15:55:53.514Z,101038.84
2022-08-23T15:58:25.656Z,101034.78
2022-08-23T16:00:56.195Z,101037.91
2022-08-23T16:03:24.985Z,101047.66
2022-08-23T16:05:55.620Z,101036.84
2022-08-23T16:08:27.686Z,101039.47
2022-08-23T16:10:59.355Z,101031.25
2022-08-23T16:13:28.664Z,101026.66
2022-08-23T16:15:58.181Z,101034.63
2022-08-23T16:18:26.590Z,101026.03
2022-08-23T16:20:56.690Z,101022.78
2022-08-23T16:23:26.797Z,101021.41
2022-08-23T16:26:00.868Z,101026.28
2022-08-23T16:28:31.434Z,101026.75
2022-08-23T16:31:00.213Z,101028.56
2022-08-23T16:33:29.311Z,101023.25
2022-08-23T16:35:58.839Z,101027.81
2022-08-23T16:38:27.088Z,101024.03
2022-08-23T16:40:55.530Z,101023.94
2022-08-23T16:43:24.197Z,101034.03
2022-08-23T16:45:54.180Z,101029.50
2022-08-23T16:48:23.361Z,101034.19
2022-08-23T16:50:53.111Z,101041.41
2022-08-23T16:53:23.891Z,101041.34
2022-08-23T16:55:53.216Z,101034.91
2022-08-23T16:58:23.895Z,101038.47
2022-08-23T17:00:52.288Z,101040.97
2022-08-23T17:03:21.851Z,101037.16
2022-08-23T17:05:52.544Z,101038.69
2022-08-23T17:08:23.984Z,101041.06
2022-08-23T17:11:02.907Z,101042.69
2022-08-23T17:13:33.659Z,101054.28
2022-08-23T17:16:02.514Z,101053.06
2022-08-23T17:18:33.923Z,101046.47
2022-08-23T17:21:02.638Z,101057.03
2022-08-23T17:23:32.731Z,101055.69
2022-08-23T17:26:04.739Z,101059.91
2022-08-23T17:28:34.575Z,101061.28
2022-08-23T17:31:03.414Z,101068.97
2022-08-23T17:33:37.209Z,101064.06
2022-08-23T17:36:10.765Z,101061.91
2022-08-23T17:38:41.412Z,101069.66
2022-08-23T17:41:10.951Z,101073.84
2022-08-23T17:43:40.766Z,101079.81
2022-08-23T17:46:11.460Z,101082.91
2022-08-23T17:48:42.004Z,101081.66
2022-08-23T17:51:10.562Z,101084.84
2022-08-23T17:53:38.499Z,101081.75
2022-08-23T17:56:11.711Z,101085.00
2022-08-23T17:58:40.257Z,101089.16
2022-08-23T18:01:08.720Z,101089.72
2022-08-23T18:03:36.791Z,101098.50
2022-08-23T18:06:16.248Z,101097.31
2022-08-23T18:08:45.690Z,101100.69
2022-08-23T18:11:15.744Z,101105.69
2022-08-23T18:13:43.682Z,101109.84
2022-08-23T18:16:12.483Z,101110.31
2022-08-23T18:18:40.544Z,101114.50
2022-08-23T18:21:09.774Z,101122.28
2022-08-23T18:23:39.014Z,101119.97
2022-08-23T18:26:08.063Z,101125.94
2022-08-23T18:28:36.259Z,101123.75
2022-08-23T18:31:06.026Z,101132.50
2022-08-23T18:33:46.735Z,101133.78
2022-08-23T18:36:15.717Z,101130.72
2022-08-23T18:38:43.570Z,101142.03
2022-08-23T18:41:13.172Z,101136.22
2022-08-23T18:43:43.186Z,101145.66
2022-08-23T18:46:13.954Z,101146.25
2022-08-23T18:48:42.701Z,101157.47
2022-08-23T18:51:18.587Z,101160.75
2022-08-23T18:53:46.441Z,101154.94
2022-08-23T18:56:14.334Z,101159.78
2022-08-23T18:58:43.959Z,101156.56
2022-08-23T19:01:23.217Z,101168.75
2022-08-23T19:03:51.180Z,101161.97
2022-08-23T19:06:19.380Z,101170.50
2022-08-23T19:08:48.018Z,101174.34
2022-08-23T19:11:16.871Z,101171.97
2022-08-23T19:13:46.108Z,101180.38
2022-08-23T19:16:16.377Z,101170.66
2022-08-23T19:18:46.643Z,101174.63
2022-08-23T19:21:16.319Z,101184.88
2022-08-23T19:23:44.200Z,101177.97
2022-08-23T19:26:12.518Z,101185.47
2022-08-23T19:28:40.642Z,101189.34
2022-08-23T19:31:09.905Z,101190.59
2022-08-23T19:33:37.958Z,101189.13
2022-08-23T19:36:06.550Z,101194.88
2022-08-23T19:38:34.574Z,101191.66
2022-08-23T19:41:05.375Z,101202.78
2022-08-23T19:43:33.529Z,101197.69
2022-08-23T19:46:01.465Z,101198.91
2022-08-23T19:48:30.736Z,101194.81
2022-08-23T19:50:58.575Z,101201.41
2022-08-23T19:53:26.446Z,101198.09
2022-08-23T19:55:54.293Z,101193.91
2022-08-23T19:58:22.946Z,101198.63
2022-08-23T20:00:51.067Z,101200.72
2022-08-23T20:03:18.940Z,101200.97
2022-08-23T20:05:48.250Z,101209.41
2022-08-23T20:08:16.131Z,101203.50
2022-08-23T20:10:44.490Z,101210.06
2022-08-23T20:13:12.865Z,101209.41
2022-08-23T20:15:40.875Z,101206.09
2022-08-23T20:18:08.720Z,101210.81
2022-08-23T20:20:36.537Z,101209.22
2022-08-23T20:23:23.457Z,101211.19
2022-08-23T20:25:51.245Z,101211.38
2022-08-23T20:28:21.206Z,101212.50
2022-08-23T20:30:52.313Z,101211.88
2022-08-23T20:33:20.248Z,101217.50
2022-08-23T20:35:48.197Z,101224.03
2022-08-23T20:38:32.882Z,101225.09
2022-08-23T20:41:01.647Z,101220.88
2022-08-23T20:43:31.289Z,101225.56
2022-08-23T20:45:59.687Z,101231.19
2022-08-23T20:48:27.580Z,101219.69
2022-08-23T20:50:55.377Z,101229.72
2022-08-23T20:53:24.576Z,101216.41
2022-08-23T20:55:52.404Z,101224.72
2022-08-23T20:58:20.395Z,101215.97
2022-08-23T21:00:48.257Z,101219.69
2022-08-23T21:03:16.163Z,101217.16
2022-08-23T21:05:43.991Z,101214.66
2022-08-23T21:08:13.007Z,101222.00
2022-08-23T21:10:45.055Z,101227.56
2022-08-23T21:13:13.294Z,101222.38
2022-08-23T21:15:41.136Z,101221.63
2022-08-23T21:18:10.067Z,101226.28
2022-08-23T21:20:37.861Z,101227.31
2022-08-23T21:23:05.687Z,101219.34
2022-08-23T21:25:33.480Z,101215.84
2022-08-23T21:28:04.344Z,101233.13
2022-08-23T21:30:32.423Z,101226.09
2022-08-23T21:33:00.824Z,101226.25
2022-08-23T21:35:28.663Z,101225.53
2022-08-23T21:37:56.539Z,101219.34
2022-08-23T21:40:24.380Z,101211.41
2022-08-23T21:42:52.311Z,101216.03
2022-08-23T21:45:21.605Z,101209.00
2022-08-23T21:47:50.061Z,101207.31
2022-08-23T21:50:18.222Z,101204.72
2022-08-23T21:52:54.649Z,101216.56
2022-08-23T21:55:35.997Z,101215.88
2022-08-23T21:58:04.846Z,101218.78
2022-08-23T22:00:34.714Z,101224.31
2022-08-23T22:03:03.171Z,101210.09
2022-08-23T22:05:31.503Z,101217.44
2022-08-23T22:07:59.837Z,101217.59
2022-08-23T22:10:27.747Z,101211.47
2022-08-23T22:12:55.799Z,101216.09
2022-08-23T22:15:25.670Z,101216.28
2022-08-23T22:17:54.840Z,101220.84
2022-08-23T22:20:22.686Z,101222.69
2022-08-23T22:22:50.477Z,101220.19
2022-08-23T22:25:18.622Z,101219.34
2022-08-23T22:27:47.513Z,101213.19
2022-08-23T22:30:16.259Z,101216.91
2022-08-23T22:32:44.996Z,101224.19
2022-08-23T22:35:14.457Z,101227.00
2022-08-23T22:38:03.662Z,101221.75
2022-08-23T22:40:33.227Z,101224.56
2022-08-23T22:43:01.217Z,101228.25
2022-08-23T22:45:29.130Z,101230.25
2022-08-23T22:47:56.970Z,101226.78
2022-08-23T22:50:26.145Z,101229.63
2022-08-23T22:52:54.098Z,101222.59
2022-08-23T22:55:21.932Z,101231.66
2022-08-23T22:57:49.749Z,101228.19
2022-08-23T23:00:17.914Z,101233.69
2022-08-23T23:02:45.740Z,101241.84
2022-08-23T23:05:13.603Z,101240.22
2022-08-23T23:08:00.247Z,101240.28
2022-08-23T23:10:28.183Z,101236.81
2022-08-23T23:12:56.055Z,101239.59
2022-08-23T23:15:23.918Z,101235.19
2022-08-23T23:17:51.887Z,101236.19
2022-08-23T23:20:38.046Z,101238.97
2022-08-23T23:23:08.075Z,101242.66
2022-08-23T23:25:36.960Z,101236.47
2022-08-23T23:28:06.215Z,101234.81
2022-08-23T23:30:34.597Z,101247.44
2022-08-23T23:33:03.158Z,101236.81
2022-08-23T23:35:31.429Z,101249.41
2022-08-23T23:37:59.642Z,101239.63
2022-08-23T23:40:29.189Z,101241.47
2022-08-23T23:42:57.085Z,101244.22
2022-08-23T23:45:25.058Z,101249.75
2022-08-23T23:47:53.130Z,101244.50
2022-08-23T23:50:21.625Z,101250.84
2022-08-23T23:52:49.444Z,101238.38
2022-08-23T23:55:20.785Z,101233.03
2022-08-23T23:57:49.995Z,101234.03
